createdAt,value
2022-10-13T00:01:59.090Z,56
2022-10-13T00:03:58.984Z,57
2022-10-13T00:06:59.241Z,55
2022-10-13T00:09:58.970Z,60
2022-10-13T00:11:59.015Z,55
2022-10-13T00:14:59.038Z,49
2022-10-13T00:17:58.985Z,54
2022-10-13T00:19:59.032Z,53
2022-10-13T00:22:58.993Z,57
2022-10-13T00:24:59.129Z,52
2022-10-13T00:27:59.002Z,52
2022-10-13T00:30:59.052Z,50
2022-10-13T00:33:00.966Z,47
2022-10-13T00:35:58.978Z,50
2022-10-13T00:37:58.989Z,46
2022-10-13T00:39:59.650Z,48
2022-10-13T00:41:58.991Z,52
2022-10-13T00:44:58.984Z,53
2022-10-13T00:47:59.003Z,50
2022-10-13T00:50:58.997Z,46
2022-10-13T00:52:59.004Z,54
2022-10-13T00:54:59.036Z,48
2022-10-13T00:56:59.083Z,55
2022-10-13T00:59:58.980Z,56
2022-10-13T01:02:59.114Z,51
2022-10-13T01:05:58.996Z,49
2022-10-13T01:08:58.980Z,48
2022-10-13T01:10:58.989Z,46
2022-10-13T01:12:58.998Z,52
2022-10-13T01:15:59.002Z,50
2022-10-13T01:17:59.004Z,48
2022-10-13T01:20:59.009Z,48
2022-10-13T01:22:59.446Z,50
2022-10-13T01:25:59.104Z,44
2022-10-13T01:28:59.040Z,45
2022-10-13T01:31:59.002Z,45
2022-10-13T01:33:59.036Z,46
2022-10-13T01:36:59.058Z,47
2022-10-13T01:39:59.006Z,45
2022-10-13T01:41:59.233Z,46
2022-10-13T01:44:59.016Z,39
2022-10-13T01:46:59.012Z,44
2022-10-13T01:48:59.024Z,43
2022-10-13T01:51:59.063Z,39
2022-10-13T01:53:59.015Z,44
2022-10-13T01:56:59.125Z,46
2022-10-13T02:00:59.059Z,43
2022-10-13T02:03:59.005Z,43
2022-10-13T02:05:59.015Z,43
2022-10-13T02:07:59.434Z,38
2022-10-13T02:10:59.002Z,42
2022-10-13T02:12:59.006Z,42
2022-10-13T02:15:59.022Z,37
2022-10-13T02:17:59.041Z,43
2022-10-13T02:20:59.027Z,37
2022-10-13T02:23:59.002Z,36
2022-10-13T02:25:59.357Z,36
2022-10-13T02:28:59.129Z,35
2022-10-13T02:31:59.253Z,40
2022-10-13T02:33:59.035Z,34
2022-10-13T02:36:59.807Z,33
2022-10-13T02:39:59.064Z,41
2022-10-13T02:41:59.008Z,38
2022-10-13T02:44:59.014Z,35
2022-10-13T02:47:59.015Z,37
2022-10-13T02:49:59.643Z,30
2022-10-13T02:52:59.205Z,41
2022-10-13T02:54:59.036Z,33
2022-10-13T02:56:59.014Z,33
2022-10-13T02:59:59.003Z,36
2022-10-13T03:01:59.013Z,34
2022-10-13T03:04:59.047Z,42
2022-10-13T03:06:59.046Z,31
2022-10-13T03:09:59.039Z,33
2022-10-13T03:12:59.025Z,37
2022-10-13T03:14:59.051Z,32
2022-10-13T03:17:59.005Z,30
2022-10-13T03:20:59.060Z,28
2022-10-13T03:22:59.058Z,29
2022-10-13T03:25:59.027Z,31
2022-10-13T03:28:59.065Z,31
2022-10-13T03:31:59.000Z,32
2022-10-13T03:33:59.200Z,32
2022-10-13T03:36:59.079Z,29
2022-10-13T03:39:59.012Z,29
2022-10-13T03:41:59.095Z,32
2022-10-13T03:44:59.091Z,26
2022-10-13T03:47:59.358Z,32
2022-10-13T03:49:59.053Z,27
2022-10-13T03:52:59.050Z,27
2022-10-13T03:55:59.010Z,26
2022-10-13T03:57:59.070Z,32
2022-10-13T04:00:59.062Z,28
2022-10-13T04:04:00.723Z,27
2022-10-13T04:06:59.034Z,30
2022-10-13T04:09:59.001Z,29
2022-10-13T04:12:59.019Z,28
2022-10-13T04:14:59.103Z,28
2022-10-13T04:16:59.042Z,27
2022-10-13T04:19:59.129Z,30
2022-10-13T04:22:59.022Z,27
2022-10-13T04:24:59.647Z,30
2022-10-13T04:27:59.041Z,33
2022-10-13T04:30:59.011Z,29
2022-10-13T04:32:59.514Z,26
2022-10-13T04:35:59.355Z,28
2022-10-13T04:37:59.020Z,28
2022-10-13T04:40:59.005Z,27
2022-10-13T04:42:59.018Z,29
2022-10-13T04:44:59.493Z,29
2022-10-13T04:47:59.009Z,27
2022-10-13T04:49:59.322Z,27
2022-10-13T04:52:59.039Z,28
2022-10-13T04:55:59.266Z,32
2022-10-13T04:57:59.026Z,30
2022-10-13T05:02:59.269Z,29
2022-10-13T05:05:59.056Z,24
2022-10-13T05:08:59.575Z,32
2022-10-13T05:11:59.037Z,27
2022-10-13T05:14:59.044Z,28
2022-10-13T05:16:59.056Z,30
2022-10-13T05:19:59.035Z,28
2022-10-13T05:21:59.062Z,31
2022-10-13T05:24:59.687Z,30
2022-10-13T05:26:59.032Z,29
2022-10-13T05:28:59.180Z,33
2022-10-13T05:31:59.037Z,31
2022-10-13T05:34:59.965Z,28
2022-10-13T05:36:59.075Z,28
2022-10-13T05:39:59.037Z,26
2022-10-13T05:42:59.046Z,29
2022-10-13T05:45:59.075Z,28
2022-10-13T05:49:00.269Z,35
2022-10-13T05:51:59.011Z,50
2022-10-13T05:53:59.195Z,48
2022-10-13T05:56:59.081Z,52
2022-10-13T05:58:59.249Z,57
2022-10-13T06:01:59.060Z,58
2022-10-13T06:04:59.043Z,50
2022-10-13T06:06:59.045Z,58
2022-10-13T06:09:59.170Z,53
2022-10-13T06:11:59.052Z,54
2022-10-13T06:14:59.050Z,68
2022-10-13T06:16:59.043Z,64
2022-10-13T06:19:59.041Z,66
2022-10-13T06:22:59.044Z,51
2022-10-13T06:25:59.032Z,57
2022-10-13T06:27:59.028Z,52
2022-10-13T06:29:59.120Z,64
2022-10-13T06:31:59.042Z,57
2022-10-13T06:34:59.178Z,65
2022-10-13T06:37:59.041Z,63
2022-10-13T06:40:59.035Z,59
2022-10-13T06:43:59.153Z,57
2022-10-13T06:45:59.047Z,66
2022-10-13T06:47:59.039Z,62
2022-10-13T06:50:59.039Z,63
2022-10-13T06:52:59.061Z,59
2022-10-13T06:55:59.069Z,61
2022-10-13T06:57:59.057Z,70
2022-10-13T07:00:59.116Z,63
2022-10-13T07:02:59.071Z,67
2022-10-13T07:05:59.032Z,61
2022-10-13T07:07:59.055Z,62
2022-10-13T07:09:59.380Z,61
2022-10-13T07:12:59.044Z,49
2022-10-13T07:15:59.140Z,47
2022-10-13T07:18:59.274Z,40
2022-10-13T07:20:59.067Z,30
2022-10-13T07:22:59.088Z,35
2022-10-13T07:25:59.270Z,35
2022-10-13T07:27:59.069Z,33
2022-10-13T07:29:59.194Z,32
2022-10-13T07:31:59.084Z,35
2022-10-13T07:35:00.009Z,31
2022-10-13T07:37:59.058Z,33
2022-10-13T07:39:59.065Z,40
2022-10-13T07:42:59.057Z,33
2022-10-13T07:44:59.062Z,34
2022-10-13T07:47:59.040Z,36
2022-10-13T07:49:59.069Z,35
2022-10-13T07:51:59.093Z,33
2022-10-13T07:53:59.178Z,37
2022-10-13T07:56:59.056Z,34
2022-10-13T08:00:00.839Z,36
2022-10-13T08:01:59.192Z,32
2022-10-13T08:04:59.207Z,37
2022-10-13T08:06:59.080Z,39
2022-10-13T08:09:59.087Z,45
2022-10-13T08:12:59.047Z,50
2022-10-13T08:15:00.475Z,39
2022-10-13T08:16:59.107Z,35
2022-10-13T08:20:01.835Z,42
2022-10-13T08:22:00.067Z,39
2022-10-13T08:23:59.757Z,40
2022-10-13T08:26:59.056Z,46
2022-10-13T08:29:59.247Z,72
2022-10-13T08:31:59.093Z,78
2022-10-13T08:34:00.036Z,84
2022-10-13T08:35:59.091Z,82
2022-10-13T08:38:59.190Z,87
2022-10-13T08:41:59.080Z,91
2022-10-13T08:45:22.086Z,84
2022-10-13T08:47:59.097Z,82
2022-10-13T08:50:59.060Z,84
2022-10-13T08:53:59.109Z,91
2022-10-13T08:58:59.043Z,83
2022-10-13T09:00:59.124Z,87
2022-10-13T09:02:59.080Z,81
2022-10-13T09:05:59.241Z,83
2022-10-13T09:08:59.068Z,95
2022-10-13T09:11:59.102Z,93
2022-10-13T09:14:59.423Z,81
2022-10-13T09:18:00.109Z,73
2022-10-13T09:20:59.384Z,80
2022-10-13T09:23:59.080Z,62
2022-10-13T09:26:59.059Z,77
2022-10-13T09:28:59.148Z,83
2022-10-13T09:31:59.057Z,76
2022-10-13T09:33:59.045Z,73
2022-10-13T09:35:59.649Z,74
2022-10-13T09:37:59.083Z,77
2022-10-13T09:40:59.708Z,81
2022-10-13T09:42:59.120Z,77
2022-10-13T09:45:59.043Z,74
2022-10-13T09:47:59.103Z,73
2022-10-13T09:50:59.129Z,79
2022-10-13T09:52:59.053Z,77
2022-10-13T09:54:59.577Z,79
2022-10-13T09:57:59.067Z,89
2022-10-13T09:59:59.145Z,75
2022-10-13T10:02:59.069Z,82
2022-10-13T10:05:59.548Z,79
2022-10-13T10:07:59.102Z,79
2022-10-13T10:09:59.123Z,75
2022-10-13T10:12:59.062Z,76
2022-10-13T10:14:59.628Z,82
2022-10-13T10:17:59.088Z,75
2022-10-13T10:19:59.376Z,82
2022-10-13T10:22:59.084Z,83
2022-10-13T10:25:59.070Z,79
2022-10-13T10:27:59.352Z,86
2022-10-13T10:30:59.067Z,77
2022-10-13T10:32:59.075Z,86
2022-10-13T10:35:59.173Z,81
2022-10-13T10:37:59.344Z,81
2022-10-13T10:40:59.077Z,71
2022-10-13T10:42:59.101Z,78
2022-10-13T10:45:59.093Z,78
2022-10-13T10:47:59.765Z,85
2022-10-13T10:50:59.091Z,83
2022-10-13T10:52:59.095Z,79
2022-10-13T10:55:59.156Z,89
2022-10-13T10:57:59.159Z,85
2022-10-13T11:00:59.309Z,82
2022-10-13T11:03:59.102Z,82
2022-10-13T11:05:59.166Z,77
2022-10-13T11:08:59.099Z,79
2022-10-13T11:11:59.073Z,78
2022-10-13T11:13:59.121Z,72
2022-10-13T11:16:59.190Z,84
2022-10-13T11:18:59.259Z,78
2022-10-13T11:21:59.337Z,81
2022-10-13T11:24:01.961Z,83
2022-10-13T11:26:59.325Z,90
2022-10-13T11:29:59.130Z,92
2022-10-13T11:32:59.097Z,86
2022-10-13T11:34:59.111Z,84
2022-10-13T11:38:06.614Z,84
2022-10-13T11:40:59.262Z,84
2022-10-13T11:43:59.654Z,81
2022-10-13T11:45:59.077Z,78
2022-10-13T11:48:59.208Z,97
2022-10-13T11:51:59.099Z,94
2022-10-13T11:54:59.356Z,77
2022-10-13T11:57:59.083Z,92
2022-10-13T12:00:59.236Z,96
2022-10-13T12:02:59.238Z,96
2022-10-13T12:05:59.180Z,91
2022-10-13T12:07:59.127Z,103
2022-10-13T12:10:59.450Z,97
2022-10-13T12:12:59.093Z,100
2022-10-13T12:15:59.082Z,104
2022-10-13T12:17:59.089Z,101
2022-10-13T12:19:59.261Z,107
2022-10-13T12:21:59.136Z,102
2022-10-13T12:24:59.226Z,99
2022-10-13T12:26:59.142Z,106
2022-10-13T12:29:59.246Z,106
2022-10-13T12:31:59.414Z,101
2022-10-13T12:34:59.374Z,89
2022-10-13T12:36:59.126Z,96
2022-10-13T12:38:59.138Z,95
2022-10-13T12:41:59.143Z,103
2022-10-13T12:43:59.981Z,108
2022-10-13T12:46:59.291Z,96
2022-10-13T12:49:59.099Z,110
2022-10-13T12:51:59.210Z,107
2022-10-13T12:53:59.118Z,107
2022-10-13T12:56:59.268Z,99
2022-10-13T12:58:59.140Z,107
2022-10-13T13:01:59.318Z,110
2022-10-13T13:04:59.104Z,99
2022-10-13T13:06:59.146Z,96
2022-10-13T13:08:59.162Z,48
2022-10-13T13:11:59.395Z,80
2022-10-13T13:13:59.131Z,105
2022-10-13T13:16:59.942Z,39
2022-10-13T13:18:59.168Z,91
2022-10-13T13:21:59.184Z,94
2022-10-13T13:23:59.425Z,93
2022-10-13T13:25:59.114Z,90
2022-10-13T13:28:59.463Z,62
2022-10-13T13:30:59.364Z,83
2022-10-13T13:33:59.406Z,85
2022-10-13T13:35:59.091Z,39
2022-10-13T13:39:00.004Z,34
2022-10-13T13:41:01.437Z,63
2022-10-13T13:43:59.409Z,78
2022-10-13T13:45:59.106Z,136
2022-10-13T13:48:00.762Z,70
2022-10-13T13:50:59.115Z,69
2022-10-13T13:52:59.662Z,57
2022-10-13T13:55:59.106Z,79
2022-10-13T13:58:59.220Z,72
2022-10-13T14:01:59.147Z,54
2022-10-13T14:03:59.303Z,74
2022-10-13T14:06:59.383Z,75
2022-10-13T14:10:00.933Z,74
2022-10-13T14:12:59.156Z,81
2022-10-13T14:15:59.155Z,71
2022-10-13T14:17:59.149Z,73
2022-10-13T14:20:59.630Z,74
2022-10-13T14:22:59.115Z,72
2022-10-13T14:24:59.189Z,78
2022-10-13T14:27:59.129Z,75
2022-10-13T14:30:00.196Z,75
2022-10-13T14:32:59.144Z,80
2022-10-13T14:35:59.238Z,87
2022-10-13T14:38:59.142Z,84
2022-10-13T14:41:59.180Z,75
2022-10-13T14:44:59.133Z,78
2022-10-13T14:46:59.191Z,78
2022-10-13T14:49:59.389Z,73
2022-10-13T14:52:59.159Z,76
2022-10-13T14:54:59.187Z,75
2022-10-13T14:57:59.283Z,71
2022-10-13T15:00:59.152Z,68
2022-10-13T15:02:59.327Z,69
2022-10-13T15:05:59.138Z,70
2022-10-13T15:08:59.788Z,71
2022-10-13T15:10:59.160Z,68
2022-10-13T15:13:59.161Z,69
2022-10-13T15:16:59.150Z,74
2022-10-13T15:19:00.001Z,65
2022-10-13T15:21:59.159Z,68
2022-10-13T15:24:59.193Z,75
2022-10-13T15:27:59.132Z,87
2022-10-13T15:29:59.742Z,91
2022-10-13T15:32:59.145Z,78
2022-10-13T15:34:59.137Z,85
2022-10-13T15:36:59.212Z,79
2022-10-13T15:39:59.162Z,92
2022-10-13T15:41:59.218Z,88
2022-10-13T15:45:10.647Z,90
2022-10-13T15:47:59.160Z,84
2022-10-13T15:49:59.434Z,86
2022-10-13T15:52:59.210Z,90
2022-10-13T15:54:59.155Z,108
2022-10-13T15:56:59.554Z,95
2022-10-13T15:59:59.238Z,93
2022-10-13T16:01:59.397Z,92
2022-10-13T16:04:59.205Z,86
2022-10-13T16:07:59.286Z,84
2022-10-13T16:09:59.271Z,87
2022-10-13T16:12:59.224Z,92
2022-10-13T16:15:59.157Z,84
2022-10-13T16:17:59.283Z,81
2022-10-13T16:20:59.454Z,88
2022-10-13T16:23:59.340Z,91
2022-10-13T16:25:59.160Z,86
2022-10-13T16:28:59.352Z,89
2022-10-13T16:31:59.189Z,93
2022-10-13T16:33:59.528Z,97
2022-10-13T16:36:59.205Z,98
2022-10-13T16:39:59.338Z,122
2022-10-13T16:41:59.498Z,108
2022-10-13T16:44:59.381Z,105
2022-10-13T16:47:59.157Z,118
2022-10-13T16:51:02.638Z,90
2022-10-13T16:52:59.307Z,89
2022-10-13T16:55:59.151Z,88
2022-10-13T16:57:59.157Z,102
2022-10-13T16:59:59.148Z,91
2022-10-13T17:01:59.448Z,93
2022-10-13T17:04:59.157Z,71
2022-10-13T17:07:59.174Z,73
2022-10-13T17:10:59.161Z,65
2022-10-13T17:12:59.323Z,76
2022-10-13T17:15:59.180Z,79
2022-10-13T17:17:59.206Z,79
2022-10-13T17:20:59.139Z,66
2022-10-13T17:22:59.189Z,61
2022-10-13T17:24:59.201Z,66
2022-10-13T17:26:59.199Z,78
2022-10-13T17:28:59.481Z,82
2022-10-13T17:31:59.198Z,67
2022-10-13T17:33:59.318Z,65
2022-10-13T17:36:59.414Z,70
2022-10-13T17:39:59.183Z,71
2022-10-13T17:42:59.170Z,82
2022-10-13T17:44:59.235Z,75
2022-10-13T17:47:59.286Z,93
2022-10-13T17:50:59.144Z,101
2022-10-13T17:52:59.229Z,84
2022-10-13T17:56:59.187Z,73
2022-10-13T17:59:59.275Z,68
2022-10-13T18:02:59.146Z,71
2022-10-13T18:04:59.231Z,65
2022-10-13T18:07:59.193Z,64
2022-10-13T18:11:07.912Z,70
2022-10-13T18:12:59.253Z,70
2022-10-13T18:15:59.217Z,72
2022-10-13T18:18:59.169Z,77
2022-10-13T18:20:59.586Z,70
2022-10-13T18:23:59.217Z,73
2022-10-13T18:26:59.160Z,67
2022-10-13T18:28:59.317Z,68
2022-10-13T18:31:59.225Z,62
2022-10-13T18:35:14.761Z,71
2022-10-13T18:36:59.357Z,64
2022-10-13T18:39:59.216Z,77
2022-10-13T18:42:59.178Z,80
2022-10-13T18:44:59.220Z,82
2022-10-13T18:46:59.334Z,87
2022-10-13T18:48:59.432Z,89
2022-10-13T18:51:59.212Z,85
2022-10-13T18:54:59.333Z,88
2022-10-13T18:57:59.160Z,92
2022-10-13T18:59:59.216Z,93
2022-10-13T19:02:59.542Z,90
2022-10-13T19:05:59.213Z,88
2022-10-13T19:08:59.750Z,90
2022-10-13T19:11:59.348Z,92
2022-10-13T19:14:59.336Z,89
2022-10-13T19:17:59.171Z,85
2022-10-13T19:19:59.295Z,87
2022-10-13T19:22:59.192Z,85
2022-10-13T19:24:59.348Z,84
2022-10-13T19:27:59.182Z,82
2022-10-13T19:29:59.202Z,78
2022-10-13T19:31:59.261Z,75
2022-10-13T19:34:59.201Z,79
2022-10-13T19:36:59.256Z,78
2022-10-13T19:39:59.211Z,76
2022-10-13T19:41:59.229Z,76
2022-10-13T19:44:59.226Z,72
2022-10-13T19:47:59.192Z,81
2022-10-13T19:50:59.192Z,100
2022-10-13T19:52:59.228Z,93
2022-10-13T19:55:59.215Z,92
2022-10-13T19:58:59.231Z,99
2022-10-13T20:00:59.658Z,88
2022-10-13T20:03:59.198Z,77
2022-10-13T20:06:59.190Z,85
2022-10-13T20:08:59.211Z,78
2022-10-13T20:11:59.243Z,73
2022-10-13T20:14:59.196Z,65
2022-10-13T20:16:59.216Z,74
2022-10-13T20:19:59.230Z,70
2022-10-13T20:22:59.180Z,75
2022-10-13T20:24:59.239Z,75
2022-10-13T20:27:59.229Z,75
2022-10-13T20:30:59.232Z,69
2022-10-13T20:32:59.230Z,74
2022-10-13T20:35:59.237Z,74
2022-10-13T20:38:59.209Z,74
2022-10-13T20:40:59.232Z,76
2022-10-13T20:43:59.268Z,76
2022-10-13T20:46:59.209Z,72
2022-10-13T20:49:11.258Z,68
2022-10-13T20:51:59.211Z,69
2022-10-13T20:54:59.199Z,60
2022-10-13T20:57:15.075Z,66
2022-10-13T20:58:59.241Z,68
2022-10-13T21:01:59.231Z,75
2022-10-13T21:04:59.215Z,67
2022-10-13T21:07:59.217Z,70
2022-10-13T21:09:59.227Z,73
2022-10-13T21:12:59.204Z,69
2022-10-13T21:14:59.196Z,65
2022-10-13T21:16:59.224Z,70
2022-10-13T21:18:59.247Z,73
2022-10-13T21:21:59.261Z,70
2022-10-13T21:24:59.193Z,62
2022-10-13T21:26:59.287Z,66
2022-10-13T21:29:59.460Z,64
2022-10-13T21:32:59.200Z,64
2022-10-13T21:34:59.253Z,67
2022-10-13T21:37:59.362Z,65
2022-10-13T21:40:59.353Z,69
2022-10-13T21:43:59.322Z,64
2022-10-13T21:46:59.603Z,62
2022-10-13T21:48:59.908Z,69
2022-10-13T21:51:59.312Z,61
2022-10-13T21:54:59.218Z,65
2022-10-13T21:58:02.942Z,65
2022-10-13T21:59:59.410Z,67
2022-10-13T22:02:59.211Z,55
2022-10-13T22:05:59.284Z,57
2022-10-13T22:08:59.322Z,54
2022-10-13T22:11:59.227Z,51
2022-10-13T22:13:59.394Z,53
2022-10-13T22:16:59.231Z,50
2022-10-13T22:18:59.263Z,56
2022-10-13T22:20:59.587Z,61
2022-10-13T22:23:59.239Z,52
2022-10-13T22:25:59.288Z,60
2022-10-13T22:27:59.361Z,56
2022-10-13T22:32:59.244Z,53
2022-10-13T22:34:59.369Z,52
2022-10-13T22:37:59.319Z,53
2022-10-13T22:40:59.357Z,53
2022-10-13T22:42:59.483Z,54
2022-10-13T22:45:59.221Z,55
2022-10-13T22:48:00.174Z,51
2022-10-13T22:50:59.288Z,52
2022-10-13T22:53:59.253Z,51
2022-10-13T22:55:59.312Z,53
2022-10-13T22:58:59.275Z,49
2022-10-13T23:00:59.311Z,63
2022-10-13T23:02:59.359Z,72
2022-10-13T23:05:59.412Z,71
2022-10-13T23:08:59.755Z,70
2022-10-13T23:11:59.995Z,65
2022-10-13T23:14:59.501Z,70
2022-10-13T23:17:59.222Z,62
2022-10-13T23:19:59.281Z,64
2022-10-13T23:22:59.241Z,58
2022-10-13T23:24:59.239Z,71
2022-10-13T23:27:59.379Z,62
2022-10-13T23:31:14.757Z,55
2022-10-13T23:33:59.224Z,59
2022-10-13T23:35:59.422Z,61
2022-10-13T23:38:59.256Z,59
2022-10-13T23:41:59.266Z,59
2022-10-13T23:43:59.308Z,63
2022-10-13T23:46:59.433Z,56
2022-10-13T23:49:59.232Z,55
2022-10-13T23:51:59.465Z,61
2022-10-13T23:54:59.347Z,58
2022-10-13T23:57:59.266Z,62
2022-10-13T23:59:59.247Z,53
